ΕΜΥ, Εθνική Μετεωρολογική Υπηρεσία - Δελτία Καιρού, Προγνώσεις

ΑΕΡΟΝΑΥΤΙΛΙΑ

GREEK AIRPORTS CODES

TAF LGIR 121700Z 1218/1318 34010KT 9999 SCT025 BECMG 1218/1220 18010KT BECMG 1306/1308 05010KT=

EUROPEAN AIRPORTS CODES

TAF LGTT 120700Z 1209/1218 07005KT 9999 FEW020 BECMG 1213/1215 15005KT=